createdAt,value
2022-10-27T00:01:34.288Z,12.54
2022-10-27T00:03:57.076Z,12.38
2022-10-27T00:06:19.535Z,12.23
2022-10-27T00:08:42.109Z,12.30
2022-10-27T00:11:06.895Z,12.30
2022-10-27T00:13:30.234Z,12.34
2022-10-27T00:15:57.303Z,12.34
2022-10-27T00:18:19.890Z,12.23
2022-10-27T00:20:42.395Z,12.16
2022-10-27T00:23:05.188Z,12.04
2022-10-27T00:25:27.844Z,11.89
2022-10-27T00:27:50.746Z,11.89
2022-10-27T00:30:13.464Z,11.94
2022-10-27T00:32:36.134Z,11.87
2022-10-27T00:34:58.690Z,11.87
2022-10-27T00:37:21.405Z,11.90
2022-10-27T00:39:44.029Z,11.90
2022-10-27T00:42:06.719Z,11.97
2022-10-27T00:44:40.976Z,11.96
2022-10-27T00:47:09.660Z,11.99
2022-10-27T00:49:58.338Z,12.04
2022-10-27T00:52:30.689Z,12.09
2022-10-27T00:54:57.072Z,12.03
2022-10-27T00:57:19.660Z,12.06
2022-10-27T00:59:42.752Z,12.07
2022-10-27T01:02:07.278Z,12.02
2022-10-27T01:04:42.775Z,12.09
2022-10-27T01:07:05.460Z,12.09
2022-10-27T01:09:28.964Z,12.09
2022-10-27T01:11:51.558Z,12.12
2022-10-27T01:14:14.199Z,12.19
2022-10-27T01:16:49.338Z,12.21
2022-10-27T01:19:51.655Z,12.30
2022-10-27T01:22:14.162Z,12.33
2022-10-27T01:24:48.631Z,12.21
2022-10-27T01:27:40.348Z,12.29
2022-10-27T01:30:23.727Z,12.37
2022-10-27T01:32:52.468Z,12.26
2022-10-27T01:35:42.495Z,12.21
2022-10-27T01:38:26.986Z,12.13
2022-10-27T01:40:56.773Z,12.12
2022-10-27T01:43:24.720Z,12.16
2022-10-27T01:45:48.489Z,12.07
2022-10-27T01:48:12.375Z,12.12
2022-10-27T01:50:45.367Z,12.03
2022-10-27T01:53:19.810Z,12.13
2022-10-27T01:56:07.169Z,12.13
2022-10-27T01:58:53.417Z,12.12
2022-10-27T02:04:20.650Z,12.20
2022-10-27T02:06:52.967Z,12.20
2022-10-27T02:09:40.071Z,12.21
2022-10-27T02:12:07.945Z,12.23
2022-10-27T02:14:30.821Z,12.16
2022-10-27T02:16:54.118Z,12.23
2022-10-27T02:19:30.332Z,12.14
2022-10-27T02:21:56.402Z,12.20
2022-10-27T02:24:19.881Z,12.10
2022-10-27T02:26:53.058Z,12.00
2022-10-27T02:29:35.471Z,12.00
2022-10-27T02:32:02.816Z,11.90
2022-10-27T02:34:27.392Z,11.96
2022-10-27T02:36:50.062Z,11.93
2022-10-27T02:39:12.639Z,11.92
2022-10-27T02:41:35.255Z,11.79
2022-10-27T02:43:57.777Z,11.81
2022-10-27T02:46:20.265Z,11.78
2022-10-27T02:48:43.045Z,11.86
2022-10-27T02:51:06.099Z,11.75
2022-10-27T02:53:28.625Z,11.79
2022-10-27T02:55:51.316Z,11.85
2022-10-27T02:58:14.187Z,11.78
2022-10-27T03:00:37.089Z,11.78
2022-10-27T03:02:59.701Z,11.81
2022-10-27T03:05:22.290Z,11.76
2022-10-27T03:07:44.996Z,11.74
2022-10-27T03:10:08.016Z,11.85
2022-10-27T03:12:30.612Z,11.92
2022-10-27T03:14:53.130Z,11.99
2022-10-27T03:17:15.756Z,11.90
2022-10-27T03:19:38.348Z,11.94
2022-10-27T03:22:00.875Z,12.03
2022-10-27T03:24:23.491Z,11.96
2022-10-27T03:26:46.414Z,12.17
2022-10-27T03:29:09.372Z,12.33
2022-10-27T03:31:31.900Z,12.44
2022-10-27T03:33:54.668Z,12.42
2022-10-27T03:36:17.161Z,12.54
2022-10-27T03:38:39.948Z,12.58
2022-10-27T03:41:02.622Z,12.60
2022-10-27T03:43:25.187Z,12.64
2022-10-27T03:45:55.072Z,12.74
2022-10-27T03:48:19.858Z,12.71
2022-10-27T03:50:49.195Z,12.62
2022-10-27T03:53:11.698Z,12.54
2022-10-27T03:55:35.732Z,12.57
2022-10-27T03:57:59.088Z,12.60
2022-10-27T04:00:22.489Z,12.47
2022-10-27T04:02:45.031Z,12.58
2022-10-27T04:05:07.886Z,12.61
2022-10-27T04:07:30.476Z,12.54
2022-10-27T04:09:53.062Z,12.57
2022-10-27T04:12:15.651Z,12.58
2022-10-27T04:14:38.174Z,12.67
2022-10-27T04:17:00.785Z,12.71
2022-10-27T04:19:23.463Z,12.78
2022-10-27T04:21:46.744Z,12.81
2022-10-27T04:24:09.380Z,12.75
2022-10-27T04:26:31.906Z,12.82
2022-10-27T04:28:54.484Z,12.84
2022-10-27T04:31:17.202Z,12.79
2022-10-27T04:33:40.979Z,12.85
2022-10-27T04:36:05.468Z,12.89
2022-10-27T04:38:28.609Z,12.93
2022-10-27T04:40:51.702Z,12.81
2022-10-27T04:43:14.352Z,12.84
2022-10-27T04:45:37.006Z,12.81
2022-10-27T04:47:59.876Z,12.84
2022-10-27T04:50:22.512Z,12.91
2022-10-27T04:52:58.323Z,12.95
2022-10-27T04:55:20.903Z,12.91
2022-10-27T04:57:43.416Z,12.96
2022-10-27T05:00:06.716Z,12.99
2022-10-27T05:02:29.946Z,12.93
2022-10-27T05:04:54.642Z,12.87
2022-10-27T05:07:17.130Z,12.85
2022-10-27T05:09:39.695Z,12.82
2022-10-27T05:12:02.227Z,12.82
2022-10-27T05:14:25.116Z,12.77
2022-10-27T05:16:47.776Z,12.82
2022-10-27T05:19:10.523Z,12.84
2022-10-27T05:21:33.156Z,12.82
2022-10-27T05:23:55.679Z,12.85
2022-10-27T05:26:18.292Z,12.78
2022-10-27T05:28:44.167Z,12.74
2022-10-27T05:31:06.711Z,12.81
2022-10-27T05:33:29.593Z,12.79
2022-10-27T05:35:52.327Z,12.84
2022-10-27T05:38:15.243Z,12.81
2022-10-27T05:40:37.971Z,12.77
2022-10-27T05:43:02.531Z,12.84
2022-10-27T05:45:25.354Z,12.77
2022-10-27T05:47:48.192Z,12.87
2022-10-27T05:50:10.813Z,12.84
2022-10-27T05:52:33.420Z,12.91
2022-10-27T05:54:56.092Z,13.03
2022-10-27T05:57:18.701Z,13.13
2022-10-27T05:59:41.287Z,13.17
2022-10-27T06:02:04.140Z,13.12
2022-10-27T06:04:26.994Z,13.22
2022-10-27T06:06:49.584Z,13.27
2022-10-27T06:09:12.213Z,13.39
2022-10-27T06:11:34.813Z,13.55
2022-10-27T06:13:57.387Z,13.58
2022-10-27T06:16:25.605Z,13.67
2022-10-27T06:18:48.201Z,13.74
2022-10-27T06:21:10.901Z,13.79
2022-10-27T06:23:33.599Z,13.88
2022-10-27T06:25:56.909Z,13.86
2022-10-27T06:28:22.159Z,13.97
2022-10-27T06:30:45.291Z,13.98
2022-10-27T06:33:07.900Z,13.91
2022-10-27T06:35:30.435Z,13.98
2022-10-27T06:37:53.014Z,13.94
2022-10-27T06:40:18.370Z,14.02
2022-10-27T06:43:01.783Z,14.12
2022-10-27T06:45:24.332Z,14.19
2022-10-27T06:47:56.257Z,14.29
2022-10-27T06:50:18.875Z,14.23
2022-10-27T06:52:41.522Z,14.39
2022-10-27T06:55:05.506Z,14.57
2022-10-27T06:57:28.177Z,14.55
2022-10-27T06:59:50.880Z,14.61
2022-10-27T07:02:16.877Z,14.74
2022-10-27T07:04:39.643Z,14.87
2022-10-27T07:07:02.302Z,14.89
2022-10-27T07:09:29.840Z,14.98
2022-10-27T07:11:54.223Z,14.98
2022-10-27T07:14:17.578Z,14.70
2022-10-27T07:16:41.363Z,14.91
2022-10-27T07:19:03.950Z,15.08
2022-10-27T07:21:28.022Z,14.95
2022-10-27T07:23:50.742Z,15.11
2022-10-27T07:26:13.352Z,15.21
2022-10-27T07:28:36.340Z,15.26
2022-10-27T07:30:59.296Z,15.12
2022-10-27T07:33:22.511Z,14.95
2022-10-27T07:35:50.241Z,14.97
2022-10-27T07:38:13.081Z,15.02
2022-10-27T07:40:36.250Z,14.88
2022-10-27T07:43:05.049Z,14.76
2022-10-27T07:45:30.856Z,14.85
2022-10-27T07:47:56.298Z,14.95
2022-10-27T07:50:24.210Z,14.88
2022-10-27T07:52:52.326Z,15.02
2022-10-27T07:55:16.565Z,15.21
2022-10-27T07:57:39.268Z,15.33
2022-10-27T08:00:03.190Z,14.83
2022-10-27T08:02:34.911Z,14.60
2022-10-27T08:04:57.795Z,14.63
2022-10-27T08:07:20.353Z,14.78
2022-10-27T08:09:44.231Z,14.49
2022-10-27T08:12:07.703Z,14.60
2022-10-27T08:14:30.197Z,14.76
2022-10-27T08:16:52.771Z,14.80
2022-10-27T08:19:16.856Z,14.92
2022-10-27T08:21:39.346Z,15.09
2022-10-27T08:24:02.161Z,14.74
2022-10-27T08:26:24.843Z,14.68
2022-10-27T08:28:48.956Z,14.70
2022-10-27T08:31:11.450Z,14.80
2022-10-27T08:33:34.085Z,14.40
2022-10-27T08:35:56.662Z,14.50
2022-10-27T08:38:20.032Z,14.49
2022-10-27T08:40:42.828Z,14.67
2022-10-27T08:43:37.755Z,14.95
2022-10-27T08:46:25.516Z,15.12
2022-10-27T08:48:49.572Z,15.15
2022-10-27T08:51:17.208Z,15.29
2022-10-27T08:53:41.687Z,15.38
2022-10-27T08:56:12.109Z,15.46
2022-10-27T08:58:38.066Z,15.40
2022-10-27T09:01:23.644Z,15.33
2022-10-27T09:04:11.386Z,14.88
2022-10-27T09:06:49.655Z,15.06
2022-10-27T09:09:17.195Z,15.11
2022-10-27T09:12:06.666Z,15.38
2022-10-27T09:14:47.733Z,15.53
2022-10-27T09:17:13.332Z,15.64
2022-10-27T09:19:45.125Z,15.73
2022-10-27T09:22:19.658Z,15.90
2022-10-27T09:24:42.300Z,16.05
2022-10-27T09:27:05.707Z,15.97
2022-10-27T09:29:36.331Z,15.96
2022-10-27T09:32:13.351Z,16.18
2022-10-27T09:35:17.782Z,16.11
2022-10-27T09:37:43.643Z,15.97
2022-10-27T09:40:13.026Z,15.50
2022-10-27T09:42:35.998Z,15.57
2022-10-27T09:45:01.591Z,15.52
2022-10-27T09:49:57.642Z,15.38
2022-10-27T09:52:28.773Z,15.42
2022-10-27T09:54:55.532Z,15.45
2022-10-27T09:57:19.810Z,15.49
2022-10-27T09:59:42.982Z,15.54
2022-10-27T10:02:23.659Z,15.70
2022-10-27T10:04:47.527Z,15.66
2022-10-27T10:07:30.367Z,15.97
2022-10-27T10:10:23.371Z,15.93
2022-10-27T10:13:09.680Z,16.18
2022-10-27T10:15:37.679Z,16.25
2022-10-27T10:18:02.652Z,16.26
2022-10-27T10:23:24.299Z,15.89
2022-10-27T10:25:49.504Z,15.40
2022-10-27T10:28:30.605Z,15.39
2022-10-27T10:30:57.755Z,15.49
2022-10-27T10:33:24.614Z,15.56
2022-10-27T10:35:49.249Z,15.98
2022-10-27T10:38:23.870Z,15.74
2022-10-27T10:40:59.127Z,15.97
2022-10-27T10:43:22.023Z,15.73
2022-10-27T10:45:53.022Z,15.87
2022-10-27T10:48:15.614Z,15.83
2022-10-27T10:50:57.245Z,16.22
2022-10-27T10:53:42.707Z,15.77
2022-10-27T10:56:20.379Z,15.64
2022-10-27T10:58:43.467Z,15.46
2022-10-27T11:01:07.956Z,15.71
2022-10-27T11:03:36.683Z,15.57
2022-10-27T11:06:02.333Z,15.70
2022-10-27T11:08:33.610Z,15.91
2022-10-27T11:10:58.877Z,16.12
2022-10-27T11:13:31.916Z,16.10
2022-10-27T11:16:00.156Z,16.42
2022-10-27T11:18:30.859Z,16.42
2022-10-27T11:20:59.487Z,16.28
2022-10-27T11:23:29.557Z,16.52
2022-10-27T11:25:53.394Z,16.38
2022-10-27T11:28:31.453Z,16.53
2022-10-27T11:31:09.501Z,16.70
2022-10-27T11:33:54.042Z,16.51
2022-10-27T11:36:47.926Z,16.73
2022-10-27T11:39:36.534Z,17.10
2022-10-27T11:42:27.401Z,16.94
2022-10-27T11:45:06.417Z,16.86
2022-10-27T11:47:35.075Z,17.02
2022-10-27T11:49:59.990Z,17.02
2022-10-27T11:52:25.658Z,16.59
2022-10-27T11:54:48.838Z,16.42
2022-10-27T11:57:21.699Z,15.91
2022-10-27T12:00:01.420Z,15.91
2022-10-27T12:02:42.676Z,16.14
2022-10-27T12:05:21.517Z,16.58
2022-10-27T12:07:55.113Z,16.36
2022-10-27T12:10:31.850Z,16.17
2022-10-27T12:13:14.611Z,16.32
2022-10-27T12:15:57.829Z,16.62
2022-10-27T12:18:29.392Z,16.83
2022-10-27T12:21:20.930Z,16.86
2022-10-27T12:24:06.514Z,17.11
2022-10-27T12:26:45.392Z,17.02
2022-10-27T12:29:09.629Z,16.35
2022-10-27T12:31:37.138Z,16.21
2022-10-27T12:34:02.263Z,15.91
2022-10-27T12:36:48.164Z,16.00
2022-10-27T12:39:29.224Z,16.18
2022-10-27T12:42:09.940Z,16.45
2022-10-27T12:44:35.356Z,16.21
2022-10-27T12:47:26.727Z,16.18
2022-10-27T12:50:33.163Z,16.33
2022-10-27T12:53:06.334Z,16.31
2022-10-27T12:55:47.874Z,16.17
2022-10-27T12:58:23.584Z,15.94
2022-10-27T13:01:21.821Z,16.21
2022-10-27T13:04:09.014Z,16.15
2022-10-27T13:07:19.810Z,15.87
2022-10-27T13:09:57.541Z,15.66
2022-10-27T13:12:29.127Z,15.74
2022-10-27T13:15:17.643Z,15.56
2022-10-27T13:17:59.092Z,15.53
2022-10-27T13:21:01.914Z,15.53
2022-10-27T13:23:48.091Z,15.62
2022-10-27T13:26:44.408Z,15.79
2022-10-27T13:29:31.133Z,15.93
2022-10-27T13:32:18.117Z,16.00
2022-10-27T13:34:40.922Z,15.77
2022-10-27T13:37:41.299Z,15.79
2022-10-27T13:40:27.062Z,15.74
2022-10-27T13:42:54.540Z,15.69
2022-10-27T13:45:35.507Z,15.60
2022-10-27T13:48:08.430Z,15.62
2022-10-27T13:50:33.975Z,15.63
2022-10-27T13:53:16.480Z,15.71
2022-10-27T13:55:39.820Z,15.70
2022-10-27T13:58:20.945Z,15.64
2022-10-27T14:01:04.395Z,15.64
2022-10-27T14:03:32.945Z,15.36
2022-10-27T14:05:56.127Z,15.25
2022-10-27T14:08:24.704Z,15.14
2022-10-27T14:10:48.095Z,15.06
2022-10-27T14:13:40.918Z,14.97
2022-10-27T14:16:04.600Z,14.83
2022-10-27T14:18:32.505Z,14.76
2022-10-27T14:20:57.990Z,14.81
2022-10-27T14:23:21.222Z,14.84
2022-10-27T14:25:43.899Z,14.78
2022-10-27T14:28:06.461Z,14.89
2022-10-27T14:30:30.021Z,14.95
2022-10-27T14:32:52.785Z,14.88
2022-10-27T14:35:28.023Z,14.87
2022-10-27T14:37:51.948Z,14.87
2022-10-27T14:40:37.808Z,14.89
2022-10-27T14:43:00.490Z,14.87
2022-10-27T14:45:23.682Z,14.80
2022-10-27T14:48:11.091Z,14.67
2022-10-27T14:50:36.744Z,14.66
2022-10-27T14:53:00.830Z,14.57
2022-10-27T14:55:31.252Z,14.46
2022-10-27T14:57:54.588Z,14.46
2022-10-27T15:00:22.434Z,14.46
2022-10-27T15:02:45.380Z,14.46
2022-10-27T15:05:13.006Z,14.41
2022-10-27T15:07:36.496Z,14.32
2022-10-27T15:09:59.203Z,14.29
2022-10-27T15:12:28.897Z,14.19
2022-10-27T15:14:53.741Z,14.12
2022-10-27T15:17:19.959Z,14.02
2022-10-27T15:19:47.754Z,13.98
2022-10-27T15:22:10.837Z,13.89
2022-10-27T15:24:33.383Z,13.81
2022-10-27T15:26:56.486Z,13.77
2022-10-27T15:29:21.741Z,13.65
2022-10-27T15:31:45.450Z,13.61
2022-10-27T15:37:26.662Z,13.46
2022-10-27T15:39:50.261Z,13.34
2022-10-27T15:42:17.542Z,13.27
2022-10-27T15:44:40.217Z,13.20
2022-10-27T15:47:31.597Z,13.20
2022-10-27T15:49:54.380Z,13.15
2022-10-27T15:52:21.348Z,13.15
2022-10-27T15:54:54.671Z,13.07
2022-10-27T15:57:41.118Z,12.99
2022-10-27T16:00:12.757Z,12.95
2022-10-27T16:02:37.182Z,12.89
2022-10-27T16:04:59.778Z,12.93
2022-10-27T16:07:22.386Z,12.81
2022-10-27T16:09:47.170Z,12.79
2022-10-27T16:12:15.973Z,12.77
2022-10-27T16:14:38.474Z,12.74
2022-10-27T16:17:01.032Z,12.74
2022-10-27T16:19:23.888Z,12.72
2022-10-27T16:21:46.580Z,12.62
2022-10-27T16:24:16.258Z,12.64
2022-10-27T16:26:39.495Z,12.69
2022-10-27T16:29:02.035Z,12.79
2022-10-27T16:31:25.348Z,12.91
2022-10-27T16:33:48.546Z,12.92
2022-10-27T16:36:13.406Z,12.88
2022-10-27T16:38:35.950Z,13.05
2022-10-27T16:40:58.869Z,13.13
2022-10-27T16:43:29.531Z,12.98
2022-10-27T16:45:52.364Z,13.13
2022-10-27T16:48:15.088Z,13.19
2022-10-27T16:50:37.693Z,13.30
2022-10-27T16:53:00.736Z,13.48
2022-10-27T16:55:24.036Z,13.64
2022-10-27T16:57:49.641Z,13.55
2022-10-27T17:00:13.984Z,13.58
2022-10-27T17:02:37.106Z,13.61
2022-10-27T17:04:59.700Z,13.65
2022-10-27T17:07:22.454Z,13.64
2022-10-27T17:09:45.255Z,13.73
2022-10-27T17:12:07.851Z,13.67
2022-10-27T17:14:33.702Z,13.65
2022-10-27T17:16:56.373Z,13.67
2022-10-27T17:19:19.316Z,13.74
2022-10-27T17:21:42.202Z,13.74
2022-10-27T17:24:05.530Z,13.78
2022-10-27T17:26:28.205Z,13.73
2022-10-27T17:28:52.200Z,13.73
2022-10-27T17:31:19.361Z,13.65
2022-10-27T17:33:46.781Z,13.70
2022-10-27T17:36:15.935Z,13.71
2022-10-27T17:38:38.602Z,13.53
2022-10-27T17:41:02.702Z,13.50
2022-10-27T17:43:25.975Z,13.48
2022-10-27T17:46:08.197Z,13.43
2022-10-27T17:48:42.720Z,13.44
2022-10-27T17:51:15.211Z,13.36
2022-10-27T17:53:39.097Z,13.50
2022-10-27T17:56:04.065Z,13.39
2022-10-27T17:58:34.067Z,13.43
2022-10-27T18:01:06.029Z,13.46
2022-10-27T18:03:28.776Z,13.55
2022-10-27T18:05:51.693Z,13.55
2022-10-27T18:08:14.495Z,13.50
2022-10-27T18:10:37.985Z,13.34
2022-10-27T18:13:00.839Z,13.32
2022-10-27T18:15:35.350Z,13.22
2022-10-27T18:17:59.225Z,13.13
2022-10-27T18:20:22.104Z,13.19
2022-10-27T18:22:45.154Z,13.02
2022-10-27T18:25:09.079Z,12.98
2022-10-27T18:27:31.828Z,12.99
2022-10-27T18:29:54.636Z,12.98
2022-10-27T18:32:21.984Z,13.03
2022-10-27T18:34:45.259Z,12.91
2022-10-27T18:37:08.047Z,12.84
2022-10-27T18:39:30.672Z,12.81
2022-10-27T18:41:53.622Z,12.85
2022-10-27T18:44:17.554Z,13.03
2022-10-27T18:46:40.444Z,13.12
2022-10-27T18:49:04.206Z,12.91
2022-10-27T18:51:29.968Z,12.91
2022-10-27T18:53:58.052Z,12.89
2022-10-27T18:56:21.805Z,13.05
2022-10-27T18:58:46.623Z,13.24
2022-10-27T19:01:12.702Z,13.36
2022-10-27T19:03:35.913Z,13.39
2022-10-27T19:06:03.736Z,13.40
2022-10-27T19:08:26.407Z,13.30
2022-10-27T19:10:49.190Z,13.30
2022-10-27T19:13:12.075Z,13.17
2022-10-27T19:15:35.191Z,13.15
2022-10-27T19:18:01.179Z,13.13
2022-10-27T19:20:24.316Z,13.30
2022-10-27T19:22:48.271Z,13.46
2022-10-27T19:25:11.588Z,13.30
2022-10-27T19:27:34.397Z,13.20
2022-10-27T19:29:57.292Z,13.15
2022-10-27T19:32:20.132Z,13.10
2022-10-27T19:34:45.090Z,13.12
2022-10-27T19:37:10.629Z,13.17
2022-10-27T19:39:33.820Z,13.24
2022-10-27T19:41:57.814Z,13.36
2022-10-27T19:44:23.861Z,13.39
2022-10-27T19:46:46.633Z,13.53
2022-10-27T19:49:14.561Z,13.47
2022-10-27T19:51:38.375Z,13.58
2022-10-27T19:54:02.553Z,13.57
2022-10-27T19:56:27.508Z,13.78
2022-10-27T19:58:58.220Z,13.73
2022-10-27T20:01:24.217Z,13.74
2022-10-27T20:03:47.863Z,13.75
2022-10-27T20:06:11.303Z,13.85
2022-10-27T20:08:33.776Z,13.70
2022-10-27T20:10:56.746Z,13.63
2022-10-27T20:13:19.486Z,13.67
2022-10-27T20:15:42.399Z,13.77
2022-10-27T20:18:05.312Z,13.71
2022-10-27T20:20:28.366Z,13.71
2022-10-27T20:22:51.176Z,13.67
2022-10-27T20:25:15.171Z,13.82
2022-10-27T20:27:38.013Z,13.91
2022-10-27T20:30:00.764Z,13.94
2022-10-27T20:32:23.865Z,13.86
2022-10-27T20:34:46.531Z,13.88
2022-10-27T20:37:10.377Z,13.70
2022-10-27T20:39:33.077Z,13.57
2022-10-27T20:41:55.724Z,13.74
2022-10-27T20:44:26.363Z,13.55
2022-10-27T20:46:49.236Z,13.48
2022-10-27T20:49:11.943Z,13.54
2022-10-27T20:51:34.969Z,13.57
2022-10-27T20:53:58.140Z,13.54
2022-10-27T20:56:20.907Z,13.68
2022-10-27T20:58:43.473Z,13.63
2022-10-27T21:01:31.437Z,13.68
2022-10-27T21:03:55.716Z,13.85
2022-10-27T21:06:18.727Z,13.68
2022-10-27T21:08:41.288Z,13.68
2022-10-27T21:11:03.958Z,13.48
2022-10-27T21:13:26.608Z,13.55
2022-10-27T21:15:56.689Z,13.61
2022-10-27T21:18:19.300Z,13.71
2022-10-27T21:20:41.793Z,13.77
2022-10-27T21:23:04.366Z,13.57
2022-10-27T21:25:27.368Z,13.44
2022-10-27T21:27:57.520Z,13.57
2022-10-27T21:30:20.651Z,13.67
2022-10-27T21:32:43.361Z,13.77
2022-10-27T21:35:06.619Z,13.60
2022-10-27T21:37:29.290Z,13.37
2022-10-27T21:39:54.000Z,13.36
2022-10-27T21:42:17.838Z,13.39
2022-10-27T21:44:40.425Z,13.47
2022-10-27T21:47:03.082Z,13.61
2022-10-27T21:49:25.645Z,13.51
2022-10-27T21:51:52.477Z,13.65
2022-10-27T21:54:15.473Z,13.57
2022-10-27T21:56:42.357Z,13.60
2022-10-27T21:59:05.024Z,13.48
2022-10-27T22:01:28.729Z,13.47
2022-10-27T22:03:51.653Z,13.46
2022-10-27T22:06:18.744Z,13.55
2022-10-27T22:08:41.473Z,13.73
2022-10-27T22:11:10.499Z,13.61
2022-10-27T22:13:33.678Z,13.57
2022-10-27T22:15:56.243Z,13.53
2022-10-27T22:18:19.209Z,13.53
2022-10-27T22:20:41.904Z,13.42
2022-10-27T22:23:04.625Z,13.33
2022-10-27T22:25:27.231Z,13.36
2022-10-27T22:27:49.790Z,13.42
2022-10-27T22:30:12.585Z,13.34
2022-10-27T22:32:35.181Z,13.50
2022-10-27T22:34:58.601Z,13.39
2022-10-27T22:37:21.241Z,13.33
2022-10-27T22:39:44.003Z,13.34
2022-10-27T22:42:07.884Z,13.39
2022-10-27T22:44:30.395Z,13.47
2022-10-27T22:46:52.914Z,13.27
2022-10-27T22:49:15.932Z,13.16
2022-10-27T22:51:40.188Z,13.06
2022-10-27T22:54:04.393Z,13.05
2022-10-27T22:56:34.012Z,13.12
2022-10-27T22:59:01.680Z,12.95
2022-10-27T23:01:27.013Z,12.99
2022-10-27T23:03:54.859Z,13.02
2022-10-27T23:06:17.594Z,13.00
2022-10-27T23:08:40.235Z,12.93
2022-10-27T23:11:06.369Z,12.96
2022-10-27T23:13:33.887Z,12.99
2022-10-27T23:16:01.425Z,12.91
2022-10-27T23:18:25.012Z,12.87
2022-10-27T23:20:47.750Z,12.77
2022-10-27T23:23:10.388Z,12.79
2022-10-27T23:25:36.652Z,12.91
2022-10-27T23:28:01.486Z,12.95
2022-10-27T23:30:23.933Z,13.03
2022-10-27T23:32:46.446Z,12.92
2022-10-27T23:35:09.144Z,12.93
2022-10-27T23:37:31.823Z,13.02
2022-10-27T23:39:54.397Z,12.98
2022-10-27T23:42:17.005Z,12.91
2022-10-27T23:44:39.560Z,13.03
2022-10-27T23:47:02.222Z,13.03
2022-10-27T23:49:24.682Z,13.05
2022-10-27T23:51:47.295Z,13.06
2022-10-27T23:54:09.872Z,12.95
2022-10-27T23:56:32.491Z,13.07
2022-10-27T23:58:55.213Z,13.12
